createdAt,value
2019-01-19T00:00:14.706Z,99.60
2019-01-19T00:03:11.026Z,99.70
2019-01-19T00:05:50.748Z,99.70
2019-01-19T00:08:27.608Z,99.90
2019-01-19T00:11:35.165Z,99.80
2019-01-19T00:14:09.268Z,99.90
2019-01-19T00:16:51.833Z,99.90
2019-01-19T00:19:48.544Z,99.90
2019-01-19T00:22:43.596Z,99.90
2019-01-19T00:25:35.146Z,99.90
2019-01-19T00:28:28.072Z,99.90
2019-01-19T00:31:04.747Z,99.90
2019-01-19T00:34:01.145Z,99.90
2019-01-19T00:36:40.734Z,99.90
2019-01-19T00:39:23.215Z,99.90
2019-01-19T00:42:20.872Z,99.80
2019-01-19T00:45:12.537Z,99.80
2019-01-19T00:48:01.390Z,99.80
2019-01-19T00:50:53.228Z,99.80
2019-01-19T00:53:41.797Z,99.80
2019-01-19T00:56:37.993Z,99.70
2019-01-19T00:59:15.141Z,99.70
2019-01-19T01:02:03.301Z,99.60
2019-01-19T01:04:43.124Z,99.70
2019-01-19T01:07:28.609Z,99.70
2019-01-19T01:10:17.786Z,99.80
2019-01-19T01:13:26.410Z,99.70
2019-01-19T01:16:05.809Z,99.90
2019-01-19T01:18:50.970Z,99.90
2019-01-19T01:21:42.519Z,99.90
2019-01-19T01:24:25.612Z,99.90
2019-01-19T01:26:59.726Z,99.90
2019-01-19T01:30:02.341Z,99.90
2019-01-19T01:32:57.441Z,99.90
2019-01-19T01:35:47.969Z,99.90
2019-01-19T01:38:37.247Z,99.80
2019-01-19T01:41:30.996Z,99.80
2019-01-19T01:44:39.920Z,99.80
2019-01-19T01:47:28.981Z,99.70
2019-01-19T01:50:20.866Z,99.60
2019-01-19T01:53:03.728Z,99.60
2019-01-19T01:55:36.971Z,99.60
2019-01-19T01:58:11.229Z,99.60
2019-01-19T02:01:15.876Z,99.60
2019-01-19T02:04:01.663Z,99.70
2019-01-19T02:06:58.364Z,99.80
2019-01-19T02:10:07.834Z,99.90
2019-01-19T02:15:59.436Z,99.90
2019-01-19T02:18:36.063Z,99.80
2019-01-19T02:21:22.023Z,99.80
2019-01-19T02:23:58.570Z,99.80
2019-01-19T02:26:46.528Z,99.80
2019-01-19T02:29:50.423Z,99.80
2019-01-19T02:32:45.044Z,99.70
2019-01-19T02:35:21.546Z,99.70
2019-01-19T02:38:24.805Z,99.70
2019-01-19T02:41:38.825Z,99.70
2019-01-19T02:44:24.778Z,99.60
2019-01-19T02:47:07.699Z,99.60
2019-01-19T02:50:06.387Z,99.60
2019-01-19T02:53:04.515Z,99.60
2019-01-19T02:55:45.602Z,99.60
2019-01-19T02:58:42.020Z,99.60
2019-01-19T03:01:30.344Z,99.60
2019-01-19T03:04:31.510Z,99.60
2019-01-19T03:07:25.794Z,99.50
2019-01-19T03:10:25.316Z,99.50
2019-01-19T03:13:17.513Z,99.50
2019-01-19T03:16:24.233Z,99.50
2019-01-19T03:19:32.386Z,99.50
2019-01-19T03:22:37.971Z,99.50
2019-01-19T03:25:47.531Z,99.40
2019-01-19T03:28:33.297Z,99.40
2019-01-19T03:31:50.849Z,99.40
2019-01-19T03:34:30.214Z,99.50
2019-01-19T03:37:25.232Z,99.50
2019-01-19T03:40:26.194Z,99.60
2019-01-19T03:43:22.858Z,99.50
2019-01-19T03:46:11.951Z,99.50
2019-01-19T03:49:17.854Z,99.50
2019-01-19T03:52:00.656Z,99.50
2019-01-19T03:54:55.839Z,99.50
2019-01-19T03:57:44.926Z,99.90
2019-01-19T04:00:18.990Z,99.50
2019-01-19T04:03:12.504Z,99.40
2019-01-19T04:06:14.961Z,99.40
2019-01-19T04:09:31.611Z,99.40
2019-01-19T04:12:14.509Z,99.40
2019-01-19T04:15:15.657Z,99.40
2019-01-19T04:18:07.430Z,99.40
2019-01-19T04:21:02.331Z,99.40
2019-01-19T04:23:32.224Z,99.40
2019-01-19T04:26:04.100Z,99.40
2019-01-19T04:28:33.617Z,99.30
2019-01-19T04:31:03.121Z,99.40
2019-01-19T04:33:32.574Z,99.40
2019-01-19T04:36:02.031Z,99.40
2019-01-19T04:38:33.660Z,99.30
2019-01-19T04:41:03.220Z,99.40
2019-01-19T04:43:32.676Z,99.40
2019-01-19T04:46:02.218Z,99.40
2019-01-19T04:48:32.071Z,99.40
2019-01-19T04:51:01.504Z,99.40
2019-01-19T04:53:30.964Z,99.50
2019-01-19T04:56:00.427Z,99.40
2019-01-19T04:58:29.876Z,99.50
2019-01-19T05:00:59.439Z,99.40
2019-01-19T05:03:28.882Z,99.50
2019-01-19T05:05:58.310Z,99.50
2019-01-19T05:08:27.880Z,99.50
2019-01-19T05:10:57.373Z,99.40
2019-01-19T05:13:26.847Z,99.50
2019-01-19T05:15:56.327Z,99.40
2019-01-19T05:18:25.971Z,99.40
2019-01-19T05:20:55.607Z,99.50
2019-01-19T05:23:25.627Z,99.50
2019-01-19T05:25:55.198Z,99.50
2019-01-19T05:28:24.681Z,99.50
2019-01-19T05:30:54.163Z,99.50
2019-01-19T05:33:23.709Z,99.40
2019-01-19T05:35:53.230Z,99.40
2019-01-19T05:38:22.724Z,99.40
2019-01-19T05:40:52.199Z,99.40
2019-01-19T05:43:21.652Z,99.40
2019-01-19T05:45:51.110Z,99.30
2019-01-19T05:48:20.532Z,99.30
2019-01-19T05:50:50.048Z,99.30
2019-01-19T05:53:19.529Z,99.30
2019-01-19T05:55:49.026Z,99.30
2019-01-19T05:58:18.498Z,99.20
2019-01-19T06:00:47.966Z,99.20
2019-01-19T06:03:17.394Z,99.20
2019-01-19T06:05:47.038Z,99.20
2019-01-19T06:08:16.638Z,99.30
2019-01-19T06:10:46.190Z,99.20
2019-01-19T06:13:15.669Z,99.20
2019-01-19T06:15:45.199Z,99.20
2019-01-19T06:18:14.649Z,99.20
2019-01-19T06:20:44.128Z,99.20
2019-01-19T06:23:13.622Z,99.20
2019-01-19T06:25:43.137Z,99.20
2019-01-19T06:28:12.708Z,99.20
2019-01-19T06:30:42.246Z,99.20
2019-01-19T06:33:11.710Z,99.20
2019-01-19T06:35:41.428Z,99.20
2019-01-19T06:38:10.878Z,99.10
2019-01-19T06:40:40.304Z,99.10
2019-01-19T06:43:09.743Z,99.10
2019-01-19T06:45:39.280Z,99.10
2019-01-19T06:48:08.809Z,99.10
2019-01-19T06:50:38.326Z,99.00
2019-01-19T06:53:07.770Z,99.00
2019-01-19T06:55:37.366Z,99.00
2019-01-19T06:58:07.099Z,99.00
2019-01-19T07:00:36.632Z,99.00
2019-01-19T07:03:06.359Z,99.00
2019-01-19T07:05:35.836Z,99.00
2019-01-19T07:08:05.436Z,99.00
2019-01-19T07:10:35.049Z,99.00
2019-01-19T07:13:04.587Z,99.00
2019-01-19T07:15:34.397Z,98.90
2019-01-19T07:18:03.873Z,99.00
2019-01-19T07:20:33.392Z,99.00
2019-01-19T07:23:03.697Z,99.00
2019-01-19T07:25:33.249Z,99.00
2019-01-19T07:28:02.814Z,99.00
2019-01-19T07:30:32.585Z,99.00
2019-01-19T07:33:02.134Z,98.90
2019-01-19T07:35:31.716Z,99.00
2019-01-19T07:38:01.236Z,98.90
2019-01-19T07:40:30.908Z,98.90
2019-01-19T07:43:01.870Z,98.90
2019-01-19T07:45:31.493Z,98.90
2019-01-19T07:48:01.182Z,98.90
2019-01-19T07:50:30.834Z,98.90
2019-01-19T07:53:00.273Z,98.90
2019-01-19T07:55:29.801Z,99.00
2019-01-19T07:57:59.334Z,99.00
2019-01-19T08:00:32.468Z,99.00
2019-01-19T08:03:02.133Z,99.00
2019-01-19T08:05:31.927Z,99.00
2019-01-19T08:08:01.515Z,98.90
2019-01-19T08:10:33.830Z,99.00
2019-01-19T08:13:03.450Z,98.90
2019-01-19T08:15:33.051Z,98.90
2019-01-19T08:18:02.512Z,98.90
2019-01-19T08:20:32.029Z,98.90
2019-01-19T08:23:01.599Z,98.90
2019-01-19T08:25:31.233Z,98.90
2019-01-19T08:28:01.393Z,98.90
2019-01-19T08:30:31.529Z,98.70
2019-01-19T08:33:01.071Z,98.80
2019-01-19T08:35:30.721Z,98.70
2019-01-19T08:38:00.337Z,98.70
2019-01-19T08:40:34.011Z,98.70
2019-01-19T08:43:05.255Z,98.80
2019-01-19T08:45:34.724Z,98.70
2019-01-19T08:48:04.579Z,98.70
2019-01-19T08:50:34.025Z,98.70
2019-01-19T08:53:05.871Z,98.70
2019-01-19T08:55:35.441Z,98.60
2019-01-19T08:58:05.211Z,98.70
2019-01-19T09:00:34.758Z,98.70
2019-01-19T09:03:04.366Z,98.70
2019-01-19T09:05:33.989Z,98.70
2019-01-19T09:08:03.490Z,98.70
2019-01-19T09:10:32.987Z,98.60
2019-01-19T09:13:02.526Z,98.60
2019-01-19T09:15:32.064Z,98.50
2019-01-19T09:18:01.523Z,98.50
2019-01-19T09:20:31.116Z,98.40
2019-01-19T09:23:08.318Z,98.40
2019-01-19T09:25:37.733Z,98.20
2019-01-19T09:28:07.244Z,98.10
2019-01-19T09:30:36.721Z,98.20
2019-01-19T09:33:06.424Z,98.20
2019-01-19T09:35:35.939Z,98.20
2019-01-19T09:38:05.696Z,98.10
2019-01-19T09:40:35.246Z,98.10
2019-01-19T09:43:04.923Z,98.00
2019-01-19T09:45:34.453Z,98.10
2019-01-19T09:48:04.080Z,98.20
2019-01-19T09:50:34.341Z,97.70
2019-01-19T09:53:03.941Z,97.70
2019-01-19T09:55:33.512Z,97.70
2019-01-19T09:58:03.167Z,97.70
2019-01-19T10:00:37.584Z,97.60
2019-01-19T10:03:04.105Z,97.70
2019-01-19T10:05:33.717Z,97.70
2019-01-19T10:08:03.325Z,97.70
2019-01-19T10:10:32.888Z,97.60
2019-01-19T10:13:02.443Z,97.50
2019-01-19T10:15:31.961Z,97.30
2019-01-19T10:18:01.594Z,97.40
2019-01-19T10:20:31.955Z,97.50
2019-01-19T10:23:01.488Z,97.50
2019-01-19T10:25:31.020Z,97.40
2019-01-19T10:28:00.560Z,97.30
2019-01-19T10:30:31.502Z,97.10
2019-01-19T10:33:01.002Z,97.00
2019-01-19T10:35:30.593Z,96.90
2019-01-19T10:38:00.139Z,96.80
2019-01-19T10:40:29.626Z,96.50
2019-01-19T10:42:59.114Z,96.80
2019-01-19T10:45:31.627Z,96.80
2019-01-19T10:48:01.238Z,96.70
2019-01-19T10:50:30.882Z,96.80
2019-01-19T10:53:00.430Z,96.70
2019-01-19T10:55:29.914Z,96.60
2019-01-19T10:57:59.364Z,96.60
2019-01-19T11:00:34.816Z,96.50
2019-01-19T11:03:05.408Z,96.50
2019-01-19T11:05:35.082Z,96.60
2019-01-19T11:08:06.761Z,96.50
2019-01-19T11:10:37.052Z,96.70
2019-01-19T11:13:06.834Z,96.70
2019-01-19T11:15:36.491Z,96.80
2019-01-19T11:18:06.183Z,96.40
2019-01-19T11:20:35.829Z,96.30
2019-01-19T11:23:05.417Z,95.90
2019-01-19T11:25:35.083Z,96.30
2019-01-19T11:28:04.846Z,96.00
2019-01-19T11:30:35.023Z,96.10
2019-01-19T11:33:04.744Z,95.60
2019-01-19T11:35:34.278Z,95.70
2019-01-19T11:38:04.102Z,95.10
2019-01-19T11:40:36.789Z,94.50
2019-01-19T11:43:08.240Z,94.10
2019-01-19T11:45:37.835Z,93.70
2019-01-19T11:48:07.644Z,94.40
2019-01-19T11:50:37.298Z,94.40
2019-01-19T11:53:06.910Z,94.90
2019-01-19T11:55:36.463Z,93.30
2019-01-19T11:58:06.222Z,93.60
2019-01-19T12:00:38.689Z,93.60
2019-01-19T12:03:08.643Z,93.60
2019-01-19T12:05:39.908Z,93.70
2019-01-19T12:08:10.150Z,92.90
2019-01-19T12:10:39.746Z,92.50
2019-01-19T12:13:09.263Z,92.60
2019-01-19T12:15:38.957Z,92.40
2019-01-19T12:18:08.766Z,92.80
2019-01-19T12:20:41.592Z,92.20
2019-01-19T12:23:11.313Z,91.90
2019-01-19T12:25:41.130Z,91.30
2019-01-19T12:28:10.604Z,91.20
2019-01-19T12:30:40.197Z,90.90
2019-01-19T12:33:09.698Z,90.50
2019-01-19T12:35:39.476Z,90.50
2019-01-19T12:38:09.067Z,88.90
2019-01-19T12:40:38.597Z,88.50
2019-01-19T12:43:15.451Z,88.60
2019-01-19T12:45:49.260Z,89.40
2019-01-19T12:48:18.854Z,87.70
2019-01-19T12:50:48.302Z,87.20
2019-01-19T12:53:17.901Z,87.70
2019-01-19T12:55:47.372Z,88.00
2019-01-19T12:58:16.827Z,87.00
2019-01-19T13:00:46.336Z,87.00
2019-01-19T13:03:15.888Z,88.00
2019-01-19T13:05:58.438Z,87.80
2019-01-19T13:08:34.333Z,88.50
2019-01-19T13:11:17.358Z,89.00
2019-01-19T13:13:48.538Z,89.00
2019-01-19T13:16:40.118Z,88.50
2019-01-19T13:19:19.970Z,88.10
2019-01-19T13:22:25.562Z,88.60
2019-01-19T13:25:17.500Z,87.80
2019-01-19T13:28:09.499Z,88.60
2019-01-19T13:31:13.465Z,87.90
2019-01-19T13:34:35.616Z,88.00
2019-01-19T13:37:37.028Z,88.80
2019-01-19T13:40:13.624Z,88.30
2019-01-19T13:43:06.811Z,88.30
2019-01-19T13:46:01.534Z,88.80
2019-01-19T13:49:14.352Z,88.90
2019-01-19T13:51:48.442Z,89.70
2019-01-19T13:54:53.572Z,87.20
2019-01-19T13:57:36.178Z,88.20
2019-01-19T14:00:24.968Z,88.30
2019-01-19T14:03:33.233Z,88.00
2019-01-19T14:06:18.871Z,87.00
2019-01-19T14:09:16.489Z,87.20
2019-01-19T14:12:05.494Z,87.40
2019-01-19T14:18:18.442Z,87.90
2019-01-19T14:21:34.664Z,86.50
2019-01-19T14:24:21.097Z,86.20
2019-01-19T14:27:20.681Z,86.60
2019-01-19T14:30:23.364Z,87.60
2019-01-19T14:33:24.231Z,86.70
2019-01-19T14:36:17.154Z,87.00
2019-01-19T14:39:03.340Z,86.70
2019-01-19T14:42:04.751Z,86.70
2019-01-19T14:44:50.391Z,87.40
2019-01-19T14:50:40.749Z,87.20
2019-01-19T14:53:31.635Z,87.00
2019-01-19T14:56:33.040Z,86.60
2019-01-19T14:59:29.035Z,86.50
2019-01-19T15:02:40.810Z,86.40
2019-01-19T15:05:31.397Z,86.20
2019-01-19T15:08:41.599Z,86.80
2019-01-19T15:11:43.958Z,86.60
2019-01-19T15:14:34.667Z,86.00
2019-01-19T15:17:47.903Z,86.40
2019-01-19T15:20:44.104Z,85.80
2019-01-19T15:27:03.023Z,85.40
2019-01-19T15:29:56.562Z,85.20
2019-01-19T15:32:42.501Z,85.90
2019-01-19T15:36:06.724Z,85.40
2019-01-19T15:39:30.839Z,85.00
2019-01-19T15:42:33.642Z,85.50
2019-01-19T15:45:41.160Z,84.80
2019-01-19T15:48:48.368Z,84.60
2019-01-19T15:52:07.801Z,85.30
2019-01-19T15:54:50.478Z,85.30
2019-01-19T15:57:57.685Z,85.50
2019-01-19T16:01:00.361Z,85.40
2019-01-19T16:03:36.895Z,85.00
2019-01-19T16:06:30.369Z,85.90
2019-01-19T16:09:40.229Z,86.20
2019-01-19T16:12:53.499Z,86.60
2019-01-19T16:16:09.874Z,86.60
2019-01-19T16:19:10.834Z,87.10
2019-01-19T16:22:10.259Z,87.50
2019-01-19T16:25:02.365Z,87.80
2019-01-19T16:27:50.932Z,88.20
2019-01-19T16:30:30.782Z,88.60
2019-01-19T16:33:07.549Z,88.90
2019-01-19T16:35:44.066Z,89.10
2019-01-19T16:38:37.434Z,89.40
2019-01-19T16:41:29.441Z,89.70
2019-01-19T16:44:18.784Z,89.80
2019-01-19T16:47:16.281Z,89.70
2019-01-19T16:50:02.057Z,90.00
2019-01-19T16:52:53.173Z,90.10
2019-01-19T16:55:47.877Z,90.10
2019-01-19T16:58:39.693Z,90.20
2019-01-19T17:01:24.779Z,90.30
2019-01-19T17:04:19.793Z,90.30
2019-01-19T17:10:33.944Z,90.40
2019-01-19T17:13:17.083Z,90.50
2019-01-19T17:16:22.735Z,90.60
2019-01-19T17:19:32.879Z,90.60
2019-01-19T17:22:56.921Z,90.70
2019-01-19T17:25:59.378Z,90.80
2019-01-19T17:29:15.512Z,90.90
2019-01-19T17:32:22.540Z,91.00
2019-01-19T17:35:35.485Z,91.00
2019-01-19T17:38:28.852Z,91.10
2019-01-19T17:41:38.803Z,91.20
2019-01-19T17:45:02.855Z,91.30
2019-01-19T17:47:45.841Z,91.30
2019-01-19T17:50:51.506Z,91.40
2019-01-19T17:53:57.150Z,91.40
2019-01-19T17:56:47.943Z,91.50
2019-01-19T17:59:52.266Z,91.50
2019-01-19T18:02:31.795Z,91.50
2019-01-19T18:05:34.752Z,91.50
2019-01-19T18:08:44.938Z,91.50
2019-01-19T18:11:47.323Z,91.50
2019-01-19T18:14:39.110Z,91.50
2019-01-19T18:17:44.268Z,91.50
2019-01-19T18:24:25.883Z,91.40
2019-01-19T18:27:14.967Z,91.50
2019-01-19T18:30:11.559Z,91.30
2019-01-19T18:33:18.576Z,91.30
2019-01-19T18:36:42.786Z,91.40
2019-01-19T18:39:33.445Z,91.30
2019-01-19T18:42:40.703Z,91.20
2019-01-19T18:46:04.887Z,91.30
2019-01-19T18:49:29.257Z,91.20
2019-01-19T18:52:31.750Z,91.20
2019-01-19T18:55:55.353Z,91.10
2019-01-19T18:59:05.592Z,91.40
2019-01-19T19:02:21.981Z,91.20
2019-01-19T19:05:16.852Z,91.20
2019-01-19T19:08:13.296Z,91.20
2019-01-19T19:11:38.465Z,91.20
2019-01-19T19:14:40.426Z,91.20
2019-01-19T19:17:56.766Z,91.20
2019-01-19T19:21:04.556Z,91.30
2019-01-19T19:24:20.484Z,91.30
2019-01-19T19:27:42.648Z,91.30
2019-01-19T19:30:42.613Z,91.30
2019-01-19T19:33:37.382Z,91.30
2019-01-19T19:36:50.617Z,91.40
2019-01-19T19:39:50.220Z,91.40
2019-01-19T19:42:32.911Z,91.40
2019-01-19T19:45:18.779Z,91.40
2019-01-19T19:48:29.103Z,91.40
2019-01-19T19:51:05.858Z,91.40
2019-01-19T19:53:35.393Z,91.50
2019-01-19T19:56:03.269Z,91.50
2019-01-19T19:58:32.754Z,91.50
2019-01-19T20:01:02.263Z,91.50
2019-01-19T20:03:31.712Z,91.50
2019-01-19T20:06:01.407Z,91.60
2019-01-19T20:08:30.991Z,91.60
2019-01-19T20:11:00.541Z,91.50
2019-01-19T20:13:30.027Z,91.50
2019-01-19T20:15:59.427Z,91.50
2019-01-19T20:18:28.917Z,91.50
2019-01-19T20:20:58.423Z,91.50
2019-01-19T20:23:27.945Z,91.50
2019-01-19T20:25:57.386Z,91.50
2019-01-19T20:28:26.928Z,91.40
2019-01-19T20:30:56.518Z,91.50
2019-01-19T20:33:26.062Z,91.50
2019-01-19T20:35:55.535Z,91.50
2019-01-19T20:38:24.997Z,91.40
2019-01-19T20:40:54.661Z,91.40
2019-01-19T20:43:24.167Z,91.50
2019-01-19T20:45:53.697Z,91.50
2019-01-19T20:48:23.452Z,91.50
2019-01-19T20:50:53.074Z,91.50
2019-01-19T20:53:22.535Z,91.50
2019-01-19T20:55:52.016Z,91.50
2019-01-19T20:58:21.576Z,91.50
2019-01-19T21:00:51.282Z,91.50
2019-01-19T21:03:20.771Z,91.50
2019-01-19T21:05:50.304Z,91.60
2019-01-19T21:08:19.820Z,91.60
2019-01-19T21:10:49.306Z,91.60
2019-01-19T21:13:18.886Z,91.60
2019-01-19T21:15:48.375Z,91.60
2019-01-19T21:18:17.834Z,91.60
2019-01-19T21:20:47.512Z,91.60
2019-01-19T21:23:16.964Z,91.60
2019-01-19T21:25:46.440Z,91.70
2019-01-19T21:28:17.422Z,91.60
2019-01-19T21:30:46.884Z,91.60
2019-01-19T21:33:16.426Z,91.60
2019-01-19T21:35:45.966Z,91.70
2019-01-19T21:38:15.503Z,91.70
2019-01-19T21:40:44.997Z,91.70
2019-01-19T21:43:14.564Z,91.70
2019-01-19T21:45:44.071Z,91.70
2019-01-19T21:48:13.553Z,91.70
2019-01-19T21:50:43.120Z,91.70
2019-01-19T21:53:12.623Z,91.70
2019-01-19T21:55:42.303Z,91.70
2019-01-19T21:58:11.841Z,91.70
2019-01-19T22:00:41.509Z,91.70
2019-01-19T22:03:11.118Z,91.70
2019-01-19T22:05:40.657Z,91.70
2019-01-19T22:08:10.195Z,91.70
2019-01-19T22:10:46.298Z,91.80
2019-01-19T22:13:11.607Z,91.70
2019-01-19T22:15:41.226Z,91.80
2019-01-19T22:18:10.919Z,91.70
2019-01-19T22:20:40.482Z,91.80
2019-01-19T22:23:10.254Z,91.80
2019-01-19T22:25:39.755Z,91.80
2019-01-19T22:28:09.390Z,91.90
2019-01-19T22:30:39.084Z,91.90
2019-01-19T22:33:09.476Z,91.80
2019-01-19T22:35:39.102Z,91.80
2019-01-19T22:38:08.591Z,91.90
2019-01-19T22:40:38.082Z,91.80
2019-01-19T22:43:07.839Z,92.10
2019-01-19T22:45:37.369Z,91.90
2019-01-19T22:48:06.894Z,91.80
2019-01-19T22:50:36.369Z,91.80
2019-01-19T22:53:06.015Z,91.90
2019-01-19T22:55:35.457Z,91.80
2019-01-19T22:58:04.961Z,91.90
2019-01-19T23:01:04.476Z,91.80
2019-01-19T23:03:34.829Z,91.90
2019-01-19T23:06:04.727Z,91.90
2019-01-19T23:08:34.241Z,91.90
2019-01-19T23:11:04.021Z,92.00
2019-01-19T23:13:33.569Z,91.90
2019-01-19T23:16:03.453Z,91.90
2019-01-19T23:18:32.995Z,91.90
2019-01-19T23:21:02.515Z,92.00
2019-01-19T23:23:31.981Z,92.00
2019-01-19T23:26:02.595Z,92.00
2019-01-19T23:28:32.252Z,91.90
2019-01-19T23:31:01.752Z,92.00
2019-01-19T23:33:31.282Z,92.00
2019-01-19T23:36:00.746Z,92.00
2019-01-19T23:38:30.242Z,92.10
2019-01-19T23:40:59.699Z,92.10
2019-01-19T23:43:29.122Z,92.10
2019-01-19T23:45:58.593Z,92.20
2019-01-19T23:48:28.030Z,92.10
2019-01-19T23:50:57.488Z,92.20
2019-01-19T23:53:26.938Z,92.10
2019-01-19T23:55:56.379Z,92.10
2019-01-19T23:58:25.860Z,92.10
